Terminal Aerodrome Forecast
Issued by NWS

Current Version | Previous Version | Text Only | Print | Product List | Glossary Off
Versions: 1 2 3 4 5 6 7 8 9 10 11 12 13 14 15 16 17 18 19 20 21 22 23 24 25 26 27

000
FTUS44 KHGX 312336
TAFIAH
TAF
KIAH 312336Z 0100/0206 11008KT P6SM VCSH FEW040 SCT170 OVC220
      TEMPO 0100/0103 -TSRA BKN035CB
     FM010300 16005KT P6SM FEW035 BKN250
     FM011100 VRB04KT P6SM VCSH BKN015
     FM011800 14009KT P6SM VCTS BKN040CB
     FM020000 13006KT P6SM SCT015 BKN050=

USA.gov is the U.S. government's official web portal to all federal, state and local government web resources and services.